Time;durP1;ratioP1;P1;durP2;ratioP2;P2;SDS_P1;SDS_P2;PMS_P1;PMS_P2;Temp;Humidity;BMP_temperature;BMP_pressure;BME280_temperature;BME280_humidity;BME280_pressure;Samples;Min_cycle;Max_cycle;Signal;HPM_P1;HPM_P2
2022/05/19 00:02:46;;;;;;;24.77;5.37;;;;;;;4.36;63.16;100008.25;2235814;80;20919;-79
2022/05/19 00:05:46;;;;;;;10.77;5.77;;;;;;;4.37;64.63;100003.56;2235726;80;21367;-77
2022/05/19 00:08:46;;;;;;;12.70;5.47;;;;;;;4.47;63.21;99999.78;2236408;80;20984;-77
2022/05/19 00:11:47;;;;;;;71.77;8.40;;;;;;;4.42;63.20;100005.11;2236223;80;21305;-77
2022/05/19 00:14:47;;;;;;;11.00;5.87;;;;;;;4.35;63.16;100006.47;2236435;80;20947;-78
2022/05/19 00:17:48;;;;;;;7.33;5.13;;;;;;;4.25;63.08;100011.02;2236957;80;21010;-77
2022/05/19 00:20:48;;;;;;;9.23;5.03;;;;;;;4.14;63.06;100014.30;2235416;80;20963;-77
2022/05/19 00:23:48;;;;;;;9.60;5.70;;;;;;;4.05;63.27;100013.39;2235328;80;21046;-77
2022/05/19 00:26:49;;;;;;;12.10;5.10;;;;;;;3.97;63.32;100008.59;2235572;80;20983;-77
2022/05/19 00:29:49;;;;;;;10.20;4.60;;;;;;;3.90;63.47;100009.05;2235408;80;20940;-77
2022/05/19 00:32:50;;;;;;;7.77;4.70;;;;;;;3.81;63.52;100007.73;2236142;80;20931;-77
2022/05/19 00:35:50;;;;;;;8.63;5.00;;;;;;;3.75;63.82;100011.25;2237178;80;21298;-77
2022/05/19 00:38:50;;;;;;;6.93;4.80;;;;;;;3.69;63.94;100007.03;2237351;80;20932;-77
2022/05/19 00:42:43;;;;;;;8.33;4.83;;;;;;;3.65;64.12;100012.82;2237458;80;20940;-77
2022/05/19 00:44:51;;;;;;;7.07;4.97;;;;;;;3.61;64.12;100013.45;2237281;80;21386;-77
2022/05/19 00:47:52;;;;;;;9.57;4.60;;;;;;;3.55;64.01;100011.80;2237283;80;21035;-78
2022/05/19 00:50:54;;;;;;;422.50;37.57;;;;;;;3.47;63.96;100012.65;2217047;80;20924;-78
2022/05/19 00:53:54;;;;;;;19.47;6.57;;;;;;;3.46;64.69;100009.55;2237621;80;20980;-78
2022/05/19 00:56:55;;;;;;;9.93;5.37;;;;;;;3.47;64.30;100010.47;2237378;79;21010;-78
2022/05/19 00:59:56;;;;;;;11.17;5.10;;;;;;;3.35;64.31;100012.30;2237352;80;20908;-78
2022/05/19 01:02:55;;;;;;;8.20;5.07;;;;;;;3.33;64.50;100007.45;2237696;80;21327;-77
2022/05/19 01:05:56;;;;;;;7.93;5.20;;;;;;;3.27;64.15;100003.22;2236911;80;21386;-78
2022/05/19 01:08:56;;;;;;;7.50;5.23;;;;;;;3.20;64.66;100000.28;2237330;80;20952;-78
2022/05/19 01:11:57;;;;;;;10.30;4.77;;;;;;;3.18;64.85;100003.56;2237682;80;20916;-79
2022/05/19 01:14:57;;;;;;;7.53;4.93;;;;;;;3.13;64.93;99998.13;2237346;80;21371;-79
2022/05/19 01:17:59;;;;;;;46.67;7.33;;;;;;;3.14;65.14;100001.20;2237273;80;21012;-79
2022/05/19 01:20:59;;;;;;;12.33;5.03;;;;;;;3.13;65.24;99995.95;2237082;80;20937;-78
2022/05/19 01:23:58;;;;;;;7.67;5.30;;;;;;;3.10;64.96;99997.95;2237320;80;20880;-79
2022/05/19 01:26:59;;;;;;;9.87;5.53;;;;;;;3.08;65.14;100003.42;2237121;80;20960;-77
2022/05/19 01:29:59;;;;;;;10.27;5.17;;;;;;;3.05;65.22;100001.05;2237598;80;21030;-78
2022/05/19 01:32:59;;;;;;;9.10;4.80;;;;;;;2.98;65.09;99997.22;2237402;80;21279;-78
2022/05/19 01:36:00;;;;;;;8.80;5.13;;;;;;;2.88;65.06;100002.63;2237160;80;21217;-78
2022/05/19 01:39:00;;;;;;;8.93;5.07;;;;;;;2.80;65.11;99994.83;2237537;80;20980;-78
2022/05/19 01:42:01;;;;;;;6.87;4.83;;;;;;;2.77;65.31;99994.64;2237284;79;21335;-79
2022/05/19 01:45:01;;;;;;;7.57;5.00;;;;;;;2.77;65.53;99995.53;2237433;80;20960;-77
2022/05/19 01:48:01;;;;;;;15.37;4.97;;;;;;;2.78;65.57;99988.69;2237407;80;20980;-79
2022/05/19 01:51:02;;;;;;;9.23;5.37;;;;;;;2.80;65.53;99981.94;2237380;80;21362;-78
2022/05/19 01:54:02;;;;;;;12.17;4.97;;;;;;;2.81;65.64;99985.89;2236953;80;20944;-78
2022/05/19 01:57:03;;;;;;;10.27;4.90;;;;;;;2.80;65.72;99985.80;2237393;78;21004;-78
2022/05/19 02:00:03;;;;;;;8.43;4.97;;;;;;;2.75;65.57;99985.52;2237277;80;21320;-78
2022/05/19 02:03:03;;;;;;;53.83;6.87;;;;;;;2.69;65.54;99986.44;2237600;80;20916;-78
2022/05/19 02:06:04;;;;;;;6.50;5.10;;;;;;;2.66;65.91;99981.09;2237434;80;20956;-78
2022/05/19 02:09:04;;;;;;;8.23;4.97;;;;;;;2.63;65.54;99990.33;2237514;80;20912;-78
2022/05/19 02:12:05;;;;;;;37.30;6.47;;;;;;;2.57;65.76;99986.95;2237322;79;21387;-79
2022/05/19 02:15:05;;;;;;;146.07;14.67;;;;;;;2.59;66.20;99985.35;2237341;80;20903;-78
2022/05/19 02:18:05;;;;;;;14.07;4.67;;;;;;;2.58;66.31;99987.84;2237332;80;21018;-77
2022/05/19 02:21:06;;;;;;;15.00;5.90;;;;;;;2.58;66.32;99988.73;2237299;79;21331;-78
2022/05/19 02:24:07;;;;;;;8.80;4.90;;;;;;;2.58;66.46;99987.44;2237181;80;20908;-78
2022/05/19 02:27:09;;;;;;;10.03;4.77;;;;;;;2.61;66.29;99988.06;2237182;80;20991;-78
2022/05/19 02:30:10;;;;;;;7.07;4.70;;;;;;;2.55;65.94;99985.56;2237403;80;20947;-78
2022/05/19 02:33:10;;;;;;;10.17;5.53;;;;;;;2.44;65.81;99984.02;2237052;80;21357;-77
2022/05/19 02:36:11;;;;;;;13.03;5.07;;;;;;;2.42;66.39;99992.45;2237326;80;20896;-79
2022/05/19 02:39:11;;;;;;;7.60;4.90;;;;;;;2.45;66.43;99993.53;2237686;80;20924;-78
2022/05/19 02:42:11;;;;;;;7.93;4.73;;;;;;;2.32;66.23;99987.12;2237390;80;20972;-78
2022/05/19 02:45:12;;;;;;;9.43;4.57;;;;;;;2.32;66.23;99987.12;2237469;80;20944;-79
2022/05/19 02:48:12;;;;;;;8.77;4.47;;;;;;;2.30;66.50;99987.42;2237292;79;21019;-79
2022/05/19 02:51:13;;;;;;;13.20;4.97;;;;;;;2.29;66.64;99986.93;2237136;80;20877;-79
2022/05/19 02:54:13;;;;;;;9.13;4.83;;;;;;;2.31;66.61;99981.47;2237417;80;20901;-79
2022/05/19 02:57:13;;;;;;;22.63;5.30;;;;;;;2.34;66.29;99984.64;2235600;80;20920;-78
2022/05/19 03:00:14;;;;;;;14.07;5.10;;;;;;;2.33;66.23;99986.33;2233073;80;20920;-79
2022/05/19 03:03:14;;;;;;;7.17;5.23;;;;;;;2.36;66.36;99989.09;2233086;80;20897;-78
2022/05/19 03:06:15;;;;;;;9.13;4.90;;;;;;;2.39;66.65;99994.44;2233003;80;21371;-78
2022/05/19 03:09:15;;;;;;;8.43;4.73;;;;;;;2.44;66.77;99997.30;2233185;80;20959;-78
2022/05/19 03:12:15;;;;;;;22.97;5.83;;;;;;;2.50;67.11;99990.84;2233270;80;20917;-78
2022/05/19 03:15:16;;;;;;;16.47;5.80;;;;;;;2.55;66.83;99988.14;2233542;80;21291;-79
2022/05/19 03:18:16;;;;;;;37.77;7.33;;;;;;;2.60;66.71;99991.40;2233443;80;20983;-78
2022/05/19 03:21:17;;;;;;;11.30;5.30;;;;;;;2.63;66.86;99987.36;2233151;80;20975;-78
2022/05/19 03:24:17;;;;;;;7.90;4.83;;;;;;;2.64;66.38;99981.41;2232209;80;20987;-78
2022/05/19 03:27:20;;;;;;;26.03;5.80;;;;;;;2.64;66.31;99976.64;2230647;80;21049;-78
2022/05/19 03:30:18;;;;;;;20.77;5.43;;;;;;;2.65;66.67;99978.42;2231435;80;21370;-79
2022/05/19 03:33:18;;;;;;;5.87;4.90;;;;;;;2.74;66.77;99976.41;2232374;80;20943;-79
2022/05/19 03:36:19;;;;;;;84.13;10.13;;;;;;;2.82;66.61;99981.62;2232567;80;20979;-79
2022/05/19 03:39:19;;;;;;;8.10;5.50;;;;;;;2.91;67.00;99979.59;2232882;80;20932;-79
2022/05/19 03:42:19;;;;;;;9.13;5.60;;;;;;;2.98;66.74;99985.61;2230449;80;20943;-78
2022/05/19 03:45:20;;;;;;;18.43;5.70;;;;;;;3.02;66.88;99979.84;2231213;80;21042;-78
2022/05/19 03:48:20;;;;;;;10.93;5.60;;;;;;;3.05;66.99;99983.89;2231660;80;21467;-78
2022/05/19 03:51:21;;;;;;;13.83;5.83;;;;;;;3.09;67.22;99988.83;2232237;80;20964;-78
2022/05/19 03:54:21;;;;;;;12.03;5.47;;;;;;;3.16;67.16;99978.96;2232315;80;21319;-78
2022/05/19 03:57:23;;;;;;;161.23;12.17;;;;;;;3.24;67.34;99980.70;2235911;79;21014;-78
2022/05/19 04:00:22;;;;;;;15.83;6.33;;;;;;;3.34;67.52;99981.73;2246505;79;20995;-78
2022/05/19 04:03:23;;;;;;;9.77;5.13;;;;;;;3.47;67.55;99979.49;2246342;79;21004;-77
2022/05/19 04:06:23;;;;;;;12.70;5.50;;;;;;;3.61;67.66;99983.76;2246215;79;20963;-78
2022/05/19 04:09:24;;;;;;;13.03;5.83;;;;;;;3.80;67.84;99984.00;2246025;79;21331;-78
2022/05/19 04:12:24;;;;;;;17.60;5.90;;;;;;;4.05;67.75;99985.37;2246863;79;20924;-77
2022/05/19 04:15:25;;;;;;;8.03;5.20;;;;;;;4.29;67.81;99982.84;2245956;79;21068;-77
2022/05/19 04:18:25;;;;;;;13.97;6.23;;;;;;;4.58;67.75;99983.16;2245063;79;21473;-77
2022/05/19 04:21:25;;;;;;;9.50;5.73;;;;;;;4.93;67.73;99986.30;2245010;79;20951;-77
2022/05/19 04:24:29;;;;;;;17.90;6.53;;;;;;;5.34;67.54;99986.27;2244296;79;20947;-79
2022/05/19 04:27:29;;;;;;;11.43;6.20;;;;;;;5.74;67.25;99978.78;2243423;79;20983;-79
2022/05/19 04:30:30;;;;;;;13.17;6.30;;;;;;;6.11;66.53;99977.61;2243298;79;21047;-79
2022/05/19 04:33:30;;;;;;;21.77;6.50;;;;;;;6.45;66.36;99978.78;2244016;79;21258;-79
2022/05/19 04:36:31;;;;;;;13.30;6.40;;;;;;;6.84;66.09;99977.50;2244957;79;21031;-78
2022/05/19 04:39:31;;;;;;;13.03;5.77;;;;;;;7.18;65.37;99977.30;2243485;79;20970;-78
2022/05/19 04:42:31;;;;;;;14.43;6.20;;;;;;;7.47;64.98;99975.95;2242987;79;20958;-77
2022/05/19 04:45:33;;;;;;;209.03;16.83;;;;;;;7.84;65.39;99974.48;2243353;79;21125;-78
2022/05/19 04:48:35;;;;;;;21.13;6.47;;;;;;;8.82;64.10;99972.30;2242739;79;21043;-77
2022/05/19 04:51:34;;;;;;;12.07;6.23;;;;;;;8.82;64.10;99972.30;2242691;79;21272;-78
2022/05/19 04:54:34;;;;;;;9.73;6.70;;;;;;;9.14;63.62;99965.64;2242591;79;20987;-77
2022/05/19 04:57:35;;;;;;;60.90;8.03;;;;;;;9.38;62.79;99958.20;2235829;79;20987;-78
2022/05/19 05:00:35;;;;;;;12.43;6.70;;;;;;;9.64;62.27;99960.00;2221313;80;20995;-78
2022/05/19 05:03:36;;;;;;;14.17;7.00;;;;;;;9.88;61.64;99964.70;2222246;80;20984;-77
2022/05/19 05:06:36;;;;;;;142.33;12.43;;;;;;;10.01;60.63;99959.47;2222048;80;21075;-79
2022/05/19 05:09:36;;;;;;;228.90;17.87;;;;;;;10.18;59.96;99959.57;2222853;80;21335;-79
2022/05/19 05:12:37;;;;;;;32.80;7.63;;;;;;;10.32;59.35;99961.33;2223185;80;20975;-80
2022/05/19 05:15:38;;;;;;;500.30;40.03;;;;;;;10.53;59.82;99956.79;2225719;80;21240;-79
2022/05/19 05:18:38;;;;;;;192.03;15.10;;;;;;;10.82;58.55;99952.83;2225056;80;21030;-79
2022/05/19 05:21:39;;;;;;;1906.73;196.97;;;;;;;11.16;56.54;99953.34;2225005;79;21011;-79
2022/05/19 05:24:39;;;;;;;197.30;20.17;;;;;;;11.60;55.71;99943.19;2225718;80;20974;-81
2022/05/19 05:27:44;;;;;;;14.80;6.77;;;;;;;12.06;54.13;99946.52;2224850;80;20979;-81
2022/05/19 05:30:43;;;;;;;13.93;5.97;;;;;;;12.53;52.83;99946.31;2201413;80;21357;-81
2022/05/19 05:33:42;;;;;;;19.67;7.33;;;;;;;12.97;51.58;99947.22;2224188;80;21006;-81
2022/05/19 05:36:43;;;;;;;16.15;6.20;;;;;;;13.37;49.89;99942.80;2224267;80;20988;-81
2022/05/19 05:39:43;;;;;;;23.15;6.45;;;;;;;13.73;49.50;99939.92;2224184;80;20912;-81
2022/05/19 05:42:44;;;;;;;16.05;6.08;;;;;;;14.06;48.21;99942.66;2224616;80;20960;-81
2022/05/19 05:45:44;;;;;;;12.60;5.50;;;;;;;14.26;47.77;99941.20;2225800;80;21075;-81
2022/05/19 05:48:45;;;;;;;57.05;8.80;;;;;;;14.54;46.66;99943.39;2225303;80;20987;-82
2022/05/19 05:51:46;;;;;;;22.73;6.40;;;;;;;14.80;46.10;99938.92;2225682;80;20996;-82
2022/05/19 05:54:45;;;;;;;25.80;6.28;;;;;;;15.10;45.62;99938.40;2224340;80;20912;-80
2022/05/19 05:57:46;;;;;;;166.47;16.87;;;;;;;15.49;44.77;99942.75;2226287;80;21099;-80
2022/05/19 06:00:46;;;;;;;16.07;5.58;;;;;;;15.78;43.55;99943.08;2230938;80;21418;-80
2022/05/19 06:03:46;;;;;;;17.62;5.80;;;;;;;16.05;42.54;99931.87;2230913;80;20987;-81
2022/05/19 06:06:47;;;;;;;29.87;6.40;;;;;;;16.33;41.83;99939.95;2230300;80;21026;-81
2022/05/19 06:09:49;;;;;;;39.50;6.37;;;;;;;16.57;41.25;99938.80;2230134;80;21022;-81
2022/05/19 06:12:49;;;;;;;24.95;6.80;;;;;;;16.90;40.47;99939.85;2230066;80;20959;-81
2022/05/19 06:15:49;;;;;;;21.50;5.10;;;;;;;17.18;39.78;99931.15;2230742;80;21826;-81
2022/05/19 06:18:49;;;;;;;54.98;8.53;;;;;;;17.46;38.72;99925.52;2230978;80;21047;-81
2022/05/19 06:21:49;;;;;;;25.43;9.78;;;;;;;17.72;38.79;99925.13;2230514;80;20986;-82
2022/05/19 06:24:50;;;;;;;10.98;4.30;;;;;;;18.03;38.07;99922.47;2230032;80;21011;-81
2022/05/19 06:27:50;;;;;;;12.70;4.13;;;;;;;18.26;37.11;99923.78;2230807;80;20987;-81
2022/05/19 06:30:50;;;;;;;8.20;3.67;;;;;;;18.51;37.36;99920.19;2230314;80;21371;-82
2022/05/19 06:33:51;;;;;;;5.72;2.80;;;;;;;18.85;36.89;99925.38;2230319;80;20931;-81
2022/05/19 06:36:51;;;;;;;14.70;3.27;;;;;;;19.09;35.81;99929.27;2231208;80;21457;-82
2022/05/19 06:39:52;;;;;;;24.55;4.72;;;;;;;19.35;34.94;99933.08;2230906;80;20987;-80
2022/05/19 06:42:52;;;;;;;29.67;4.33;;;;;;;19.56;34.12;99930.31;2232454;80;20967;-82
2022/05/19 06:45:52;;;;;;;5.15;2.85;;;;;;;19.79;32.00;99927.94;2231522;80;21007;-82
2022/05/19 06:48:53;;;;;;;12.23;3.02;;;;;;;19.90;31.83;99922.98;2231100;80;21038;-81
2022/05/19 06:51:53;;;;;;;25.52;3.62;;;;;;;20.01;31.01;99931.74;2231138;80;21381;-81
2022/05/19 06:54:54;;;;;;;10.65;3.65;;;;;;;20.16;31.36;99936.47;2231378;80;20942;-81
2022/05/19 06:57:54;;;;;;;10.63;3.60;;;;;;;20.36;31.23;99928.74;2229593;79;20991;-81
2022/05/19 07:00:54;;;;;;;19.70;4.30;;;;;;;20.57;31.28;99932.08;2224245;80;21242;-82
2022/05/19 07:03:55;;;;;;;10.38;2.83;;;;;;;20.78;29.47;99932.28;2224186;80;21410;-80
2022/05/19 07:06:55;;;;;;;49.55;6.08;;;;;;;20.84;29.13;99926.92;2223727;80;20953;-82
2022/05/19 07:09:56;;;;;;;13.68;3.05;;;;;;;20.84;29.55;99928.25;2224469;80;20983;-81
2022/05/19 07:12:56;;;;;;;14.23;3.33;;;;;;;20.91;28.94;99929.94;2224789;80;21845;-81
2022/05/19 07:15:56;;;;;;;13.43;3.58;;;;;;;20.87;29.47;99926.44;2224600;80;21055;-80
2022/05/19 07:22:16;;;;;;;7.47;3.60;;;;;;;21.08;28.25;99919.09;2224438;80;20953;-81
2022/05/19 07:25:16;;;;;;;9.88;3.75;;;;;;;21.23;28.97;99914.92;2224428;80;21700;-82
2022/05/19 07:28:18;;;;;;;131.40;11.93;;;;;;;21.41;28.68;99917.31;2224284;80;20976;-81
2022/05/19 07:31:17;;;;;;;12.25;3.37;;;;;;;21.54;29.07;99912.23;2224444;80;20983;-81
2022/05/19 07:34:17;;;;;;;6.25;2.70;;;;;;;21.71;27.58;99907.14;2224089;80;21471;-80
2022/05/19 07:37:18;;;;;;;60.45;7.83;;;;;;;21.74;27.07;99901.77;2224480;80;20964;-81
2022/05/19 07:40:18;;;;;;;44.50;5.08;;;;;;;21.84;26.96;99896.72;2224619;80;21058;-78
2022/05/19 07:43:37;;;;;;;48.95;5.33;;;;;;;21.91;26.60;99901.91;2224070;80;20990;-81
2022/05/19 07:46:37;;;;;;;22.85;3.05;;;;;;;22.12;27.09;99898.02;2224165;80;21423;-80
2022/05/19 07:49:38;;;;;;;6.00;2.20;;;;;;;22.44;26.49;99898.73;2223658;80;21082;-82
2022/05/19 07:52:38;;;;;;;5.60;2.55;;;;;;;22.50;26.33;99903.06;2224274;80;21006;-80
2022/05/19 07:55:38;;;;;;;1.87;1.57;;;;;;;22.66;25.60;99893.02;2224148;80;21392;-81
2022/05/19 07:58:39;;;;;;;3.50;1.92;;;;;;;22.69;22.73;99899.16;2226278;80;20991;-81
2022/05/19 08:01:39;;;;;;;7.40;1.75;;;;;;;22.59;23.31;99894.93;2230280;80;20959;-81
2022/05/19 08:04:40;;;;;;;4.10;1.80;;;;;;;22.75;23.10;99898.15;2230521;80;20999;-81
2022/05/19 08:07:40;;;;;;;23.40;3.87;;;;;;;22.74;22.07;99903.92;2230552;80;20983;-83
2022/05/19 08:10:40;;;;;;;6.00;2.20;;;;;;;22.67;22.94;99902.30;2230690;80;20955;-80
2022/05/19 08:17:00;;;;;;;2.90;1.82;;;;;;;22.68;22.77;99888.54;2230136;80;21367;-80
2022/05/19 08:20:00;;;;;;;3.65;2.10;;;;;;;22.76;21.21;99886.59;2229845;80;21003;-82
2022/05/19 08:23:01;;;;;;;5.20;1.70;;;;;;;22.93;22.30;99884.94;2229161;80;20971;-82
2022/05/19 08:26:01;;;;;;;8.90;1.80;;;;;;;23.18;21.08;99891.46;2230289;80;21002;-80
2022/05/19 08:29:02;;;;;;;13.98;2.50;;;;;;;23.22;21.27;99889.15;2230809;80;20983;-82
2022/05/19 08:32:02;;;;;;;8.58;2.20;;;;;;;23.30;22.24;99888.52;2230864;80;20923;-82
2022/05/19 08:35:02;;;;;;;3.45;1.87;;;;;;;23.41;21.35;99893.17;2231041;80;21109;-81
2022/05/19 08:38:03;;;;;;;3.33;1.70;;;;;;;23.49;21.50;99879.20;2230563;80;20967;-80
2022/05/19 08:41:03;;;;;;;2.92;1.90;;;;;;;23.59;21.58;99875.02;2231118;80;20994;-82
2022/05/19 08:44:04;;;;;;;3.12;1.90;;;;;;;23.38;21.21;99869.23;2231111;80;20951;-81
2022/05/19 08:47:04;;;;;;;3.80;2.05;;;;;;;23.63;21.95;99870.91;2231014;80;22114;-81
2022/05/19 08:50:05;;;;;;;4.00;1.90;;;;;;;23.91;21.39;99865.74;2230663;79;20997;-83
2022/05/19 08:53:06;;;;;;;3.98;2.12;;;;;;;24.01;21.96;99871.25;2231238;80;20948;-82
2022/05/19 08:56:05;;;;;;;5.03;2.08;;;;;;;24.00;22.16;99871.29;2230529;80;21421;-81
2022/05/19 08:59:06;;;;;;;3.65;2.00;;;;;;;24.03;22.07;99868.08;2230326;79;20996;-80
2022/05/19 09:02:06;;;;;;;4.25;1.85;;;;;;;24.05;22.61;99869.38;2229800;80;20967;-80
2022/05/19 09:05:06;;;;;;;10.20;1.92;;;;;;;24.06;21.71;99865.33;2229402;80;21046;-81
2022/05/19 09:08:07;;;;;;;2.87;1.90;;;;;;;24.05;21.99;99862.25;2230412;80;20927;-82
2022/05/19 09:11:12;;;;;;;114.97;10.48;;;;;;;24.20;21.71;99854.75;2231366;80;20947;-81
2022/05/19 09:14:10;;;;;;;3.72;2.22;;;;;;;24.47;21.39;99850.03;2230887;80;21038;-80
2022/05/19 09:17:11;;;;;;;5.42;1.85;;;;;;;24.75;20.88;99852.30;2230426;80;20956;-81
2022/05/19 09:20:11;;;;;;;3.27;1.80;;;;;;;24.89;20.30;99855.02;2231149;80;21463;-81
2022/05/19 09:23:12;;;;;;;5.30;1.75;;;;;;;24.70;20.64;99861.38;2230104;80;20959;-82
2022/05/19 09:26:12;;;;;;;4.75;1.50;;;;;;;24.77;20.54;99846.45;2229818;80;21802;-81
2022/05/19 09:29:12;;;;;;;5.33;1.85;;;;;;;24.72;20.59;99845.72;2229552;80;21022;-81
2022/05/19 09:32:13;;;;;;;3.95;2.12;;;;;;;24.91;20.72;99839.82;2229823;80;20999;-79
2022/05/19 09:35:13;;;;;;;6.87;2.22;;;;;;;25.05;20.13;99838.97;2228849;80;20967;-78
2022/05/19 09:38:17;;;;;;;2.95;1.70;;;;;;;24.96;19.70;99845.90;2228882;80;21023;-82
2022/05/19 09:41:14;;;;;;;8.60;2.22;;;;;;;24.63;20.10;99837.98;2229908;80;20943;-81
2022/05/19 09:44:14;;;;;;;5.40;2.27;;;;;;;24.75;20.34;99831.41;2229186;80;21386;-80
2022/05/19 09:47:15;;;;;;;4.30;2.05;;;;;;;25.00;20.11;99829.77;2229059;80;21007;-79
2022/05/19 09:50:16;;;;;;;2.22;1.95;;;;;;;25.31;20.08;99826.14;2229541;80;21079;-81
2022/05/19 09:53:16;;;;;;;6.28;2.70;;;;;;;25.46;19.82;99828.31;2230392;80;21339;-81
2022/05/19 09:56:16;;;;;;;3.77;1.90;;;;;;;25.19;19.78;99813.18;2230856;80;20950;-81
2022/05/19 09:59:16;;;;;;;3.35;2.20;;;;;;;25.21;19.09;99815.34;2229754;79;21253;-81
2022/05/19 10:02:17;;;;;;;3.27;2.45;;;;;;;25.15;19.36;99816.41;2230897;80;20956;-79
2022/05/19 10:05:17;;;;;;;7.90;2.30;;;;;;;25.08;19.82;99822.84;2228558;80;21461;-81
2022/05/19 10:08:18;;;;;;;6.30;2.50;;;;;;;25.11;20.54;99824.08;2230011;80;20971;-82
2022/05/19 10:11:18;;;;;;;3.47;2.10;;;;;;;25.18;20.58;99814.11;2229703;80;20940;-80
2022/05/19 10:14:18;;;;;;;4.35;2.02;;;;;;;25.27;20.08;99817.81;2229621;80;21327;-80
2022/05/19 10:17:19;;;;;;;35.30;4.22;;;;;;;25.27;20.69;99813.80;2230305;80;21026;-80
2022/05/19 10:20:20;;;;;;;14.33;2.72;;;;;;;25.50;20.91;99817.05;2230606;80;21019;-79
2022/05/19 10:23:20;;;;;;;2.80;1.98;;;;;;;25.66;19.68;99819.65;2231350;80;21403;-83
2022/05/19 10:26:20;;;;;;;7.78;2.20;;;;;;;25.80;20.18;99808.02;2229744;80;20952;-78
2022/05/19 10:32:39;;;;;;;2.70;1.70;;;;;;;25.68;19.62;99815.12;2228765;80;21010;-78
2022/05/19 10:35:40;;;;;;;5.90;2.08;;;;;;;25.64;18.87;99806.77;2230098;80;20992;-79
2022/05/19 10:38:40;;;;;;;4.33;2.08;;;;;;;25.66;19.42;99799.59;2229609;80;21987;-81
2022/05/19 10:41:41;;;;;;;5.75;1.70;;;;;;;25.92;18.66;99787.52;2230127;80;20988;-79
2022/05/19 10:44:41;;;;;;;3.30;2.10;;;;;;;25.97;18.36;99784.67;2230024;79;21269;-80
2022/05/19 10:47:41;;;;;;;1.90;1.80;;;;;;;25.93;18.33;99782.58;2228348;80;21038;-79
2022/05/19 10:50:42;;;;;;;2.47;1.67;;;;;;;25.97;18.56;99777.53;2228083;80;21453;-79
2022/05/19 10:53:42;;;;;;;5.95;2.17;;;;;;;26.06;18.64;99775.02;2229201;80;21205;-79
2022/05/19 10:56:43;;;;;;;3.22;2.50;;;;;;;26.20;18.32;99768.69;2228810;80;21015;-77
2022/05/19 10:59:43;;;;;;;8.40;2.77;;;;;;;26.29;18.21;99765.66;2228887;79;21014;-78
2022/05/19 11:02:44;;;;;;;4.55;2.50;;;;;;;26.38;17.88;99760.47;2229336;80;21024;-80
2022/05/19 11:05:44;;;;;;;3.70;2.60;;;;;;;26.37;18.45;99753.83;2230112;80;21442;-81
2022/05/19 11:08:44;;;;;;;5.08;2.80;;;;;;;26.46;18.49;99745.45;2231237;80;20971;-78
2022/05/19 11:11:45;;;;;;;10.15;3.20;;;;;;;26.44;18.02;99740.16;2230070;80;21000;-78
2022/05/19 11:14:46;;;;;;;6.15;2.95;;;;;;;26.44;18.02;99740.16;2231227;80;21354;-78
2022/05/19 11:17:46;;;;;;;3.58;2.80;;;;;;;26.51;18.52;99727.40;2230284;80;20951;-79
2022/05/19 11:20:48;;;;;;;2.90;2.53;;;;;;;26.66;18.11;99734.83;2207940;80;21049;-82
2022/05/19 11:23:48;;;;;;;17.40;3.22;;;;;;;26.68;18.06;99733.42;2230714;80;20956;-80
2022/05/19 11:26:49;;;;;;;6.87;2.80;;;;;;;26.73;17.24;99728.77;2230390;79;21063;-80
2022/05/19 11:29:49;;;;;;;5.08;2.95;;;;;;;26.95;17.22;99725.18;2230880;80;21010;-79
2022/05/19 11:32:50;;;;;;;4.15;2.42;;;;;;;27.09;17.21;99719.28;2231434;80;20923;-79
2022/05/19 11:35:50;;;;;;;5.85;3.30;;;;;;;27.05;17.03;99723.03;2229718;80;20959;-80
2022/05/19 11:38:50;;;;;;;19.25;3.62;;;;;;;26.81;17.35;99718.14;2231239;80;21721;-79
2022/05/19 11:41:51;;;;;;;5.75;3.05;;;;;;;26.88;17.41;99715.65;2230829;80;21031;-78
2022/05/19 11:44:51;;;;;;;7.30;3.22;;;;;;;27.02;16.84;99716.92;2230243;80;21027;-80
2022/05/19 11:57:48;;;;;;;11.70;3.17;;;;;;;27.17;17.48;99689.02;2230173;80;20971;-79
2022/05/19 12:00:49;;;;;;;10.68;3.45;;;;;;;27.19;18.07;99683.12;2239573;79;21046;-79
2022/05/19 12:03:49;;;;;;;36.63;7.22;;;;;;;27.40;17.94;99680.45;2244015;79;21208;-79
2022/05/19 12:06:50;;;;;;;7.20;3.10;;;;;;;27.53;17.06;99688.36;2242808;79;20971;-79
2022/05/19 12:09:50;;;;;;;8.13;3.30;;;;;;;27.53;17.38;99675.82;2243269;79;20943;-79
2022/05/19 12:12:54;;;;;;;12.50;3.30;;;;;;;27.42;17.61;99671.88;2210875;79;20987;-79
2022/05/19 12:15:53;;;;;;;7.35;3.27;;;;;;;27.43;17.43;99661.08;2242534;79;21037;-78
2022/05/19 12:18:53;;;;;;;9.75;2.95;;;;;;;27.58;17.70;99660.87;2243341;79;21249;-79
2022/05/19 12:21:54;;;;;;;6.62;3.00;;;;;;;27.65;18.24;99657.00;2242816;79;21076;-80
2022/05/19 12:24:54;;;;;;;3.72;2.22;;;;;;;27.56;18.49;99655.57;2243403;79;21066;-78
2022/05/19 12:27:55;;;;;;;9.43;3.12;;;;;;;27.59;17.52;99647.86;2242304;79;20979;-81
2022/05/19 12:34:17;;;;;;;6.53;2.58;;;;;;;27.76;17.14;99648.50;2240805;79;21405;-77
2022/05/19 12:37:17;;;;;;;9.85;2.72;;;;;;;27.77;16.32;99653.80;2240288;79;20966;-79
2022/05/19 12:43:38;;;;;;;15.95;5.25;;;;;;;27.57;17.22;99644.38;2056756;86;21052;-80
2022/05/19 12:46:41;;;;;;;7.62;2.80;;;;;;;27.78;17.12;99638.58;2058232;86;20958;-81
2022/05/19 12:49:41;;;;;;;;;;;;;;;27.96;17.42;99644.90;2060833;86;21454;-80
2022/05/19 12:52:42;;;;;;;7.37;2.45;;;;;;;27.90;17.39;99644.72;2058284;86;20147;-79
2022/05/19 12:55:44;;;;;;;4.58;2.60;;;;;;;27.41;17.71;99632.59;2058867;86;21376;-80
2022/05/19 12:58:45;;;;;;;11.43;3.00;;;;;;;27.45;17.85;99633.73;2059693;86;21028;-79
2022/05/19 13:01:43;;;;;;;10.80;2.30;;;;;;;27.59;17.36;99631.30;2059266;86;21024;-81
2022/05/19 13:04:43;;;;;;;5.42;2.87;;;;;;;27.80;16.89;99616.58;2059169;86;21372;-80
2022/05/19 13:07:44;;;;;;;4.12;2.20;;;;;;;27.82;16.93;99610.20;2059010;86;21057;-80
2022/05/19 13:10:44;;;;;;;7.33;2.37;;;;;;;27.97;16.90;99615.78;2058784;86;21129;-80
2022/05/19 13:13:46;;;;;;;14.07;2.95;;;;;;;28.11;16.59;99618.69;2058563;86;21320;-81
2022/05/19 13:16:45;;;;;;;5.37;2.47;;;;;;;28.19;16.52;99620.53;2059303;86;20989;-80
2022/05/19 13:19:46;;;;;;;7.33;2.35;;;;;;;28.19;16.22;99615.16;2059258;86;20985;-80
2022/05/19 13:22:46;;;;;;;6.53;3.37;;;;;;;28.30;16.62;99613.34;2059092;86;20986;-77
2022/05/19 13:25:46;;;;;;;8.13;2.77;;;;;;;28.37;16.30;99605.38;2058929;86;21025;-80
2022/05/19 13:32:06;;;;;;;4.78;2.47;;;;;;;27.98;15.52;99603.64;2059628;86;20997;-81
2022/05/19 13:35:06;;;;;;;7.53;2.92;;;;;;;27.82;15.55;99589.20;2060170;86;21004;-81
2022/05/19 13:38:06;;;;;;;5.40;2.95;;;;;;;28.00;16.32;99590.15;2059774;86;21036;-79
2022/05/19 13:41:07;;;;;;;8.50;2.75;;;;;;;28.16;15.61;99589.81;2063312;84;21081;-80
2022/05/19 13:44:07;;;;;;;5.03;2.85;;;;;;;28.30;15.47;99579.30;2058785;86;20962;-78
2022/05/19 13:47:08;;;;;;;11.30;2.90;;;;;;;28.47;15.28;99575.31;2058690;87;21053;-80
2022/05/19 13:50:08;;;;;;;5.08;3.10;;;;;;;28.52;15.15;99584.48;2058859;85;21010;-80
2022/05/19 13:53:08;;;;;;;12.00;3.90;;;;;;;28.42;15.29;99577.36;2058748;85;20975;-81
2022/05/19 13:56:09;;;;;;;12.47;3.15;;;;;;;28.33;15.81;99581.84;2058654;85;21009;-81
2022/05/19 13:59:09;;;;;;;14.55;3.45;;;;;;;28.31;15.45;99570.31;2059388;85;21324;-78
2022/05/19 14:02:10;;;;;;;8.10;3.60;;;;;;;28.39;15.83;99568.11;2058028;85;21022;-80
2022/05/19 14:05:10;;;;;;;10.45;2.90;;;;;;;28.63;15.66;99562.50;2058062;87;21122;-82
2022/05/19 14:08:11;;;;;;;7.15;3.02;;;;;;;28.68;15.29;99564.47;2058734;85;22005;-82
2022/05/19 14:11:11;;;;;;;8.00;3.10;;;;;;;28.65;15.36;99555.23;2058427;87;21504;-81
2022/05/19 14:14:11;;;;;;;12.18;4.25;;;;;;;28.68;15.27;99555.07;2058498;87;20994;-81
2022/05/19 14:17:12;;;;;;;6.37;2.90;;;;;;;28.62;15.14;99555.38;2058919;85;21016;-83
2022/05/19 14:20:12;;;;;;;9.45;3.25;;;;;;;28.70;14.99;99551.83;2058755;85;21366;-82
2022/05/19 14:23:13;;;;;;;7.28;2.95;;;;;;;28.72;15.52;99547.25;2059236;87;21056;-81
2022/05/19 14:26:13;;;;;;;8.28;2.40;;;;;;;28.75;14.82;99547.09;2058654;87;21029;-80
2022/05/19 14:29:13;;;;;;;3.90;2.85;;;;;;;28.61;14.60;99546.45;2057429;85;20994;-80
2022/05/19 14:32:14;;;;;;;19.07;3.55;;;;;;;28.57;14.81;99546.66;2058077;85;20974;-80
2022/05/19 14:35:14;;;;;;;21.65;4.83;;;;;;;28.49;15.16;99537.17;2057646;85;21020;-81
2022/05/19 14:38:15;;;;;;;29.82;3.83;;;;;;;28.40;14.88;99529.58;2057855;87;20985;-80